createdAt,value
2024-01-15T00:04:37.826Z,98730.97
2024-01-15T00:09:41.221Z,99060.28
2024-01-15T00:14:43.486Z,99147.16
2024-01-15T00:19:45.195Z,98994.28
2024-01-15T00:24:46.862Z,99129.78
2024-01-15T00:29:49.269Z,98984.88
2024-01-15T00:34:52.152Z,98785.06
2024-01-15T00:39:53.989Z,98782.81
2024-01-15T00:44:55.723Z,98941.78
2024-01-15T00:49:57.372Z,98955.59
2024-01-15T00:54:59.124Z,99116.25
2024-01-15T01:00:02.949Z,98993.31
2024-01-15T01:05:06.590Z,98814.09
2024-01-15T01:10:08.539Z,99060.84
2024-01-15T01:15:10.225Z,98896.44
2024-01-15T01:20:13.280Z,98656.13
2024-01-15T01:25:16.424Z,99034.88
2024-01-15T01:30:18.252Z,98753.09
2024-01-15T01:35:20.010Z,98899.97
2024-01-15T01:40:21.664Z,99118.19
2024-01-15T01:45:23.247Z,98744.69
2024-01-15T01:50:25.067Z,98765.75
2024-01-15T01:55:28.850Z,98842.09
2024-01-15T02:00:32.266Z,98996.25
2024-01-15T02:05:36.343Z,98876.16
2024-01-15T02:10:37.984Z,98960.53
2024-01-15T02:15:39.589Z,99062.66
2024-01-15T02:20:41.319Z,98822.38
2024-01-15T02:25:46.175Z,98951.63
2024-01-15T02:30:48.070Z,98880.47
2024-01-15T02:35:51.325Z,98811.03
2024-01-15T02:40:52.951Z,98926.28
2024-01-15T02:45:54.656Z,98839.78
2024-01-15T02:50:56.348Z,98911.72
2024-01-15T02:55:57.968Z,98933.16
2024-01-15T03:00:59.768Z,98624.66
2024-01-15T03:06:02.892Z,98690.34
2024-01-15T03:11:04.627Z,98795.19
2024-01-15T03:16:06.759Z,98967.59
2024-01-15T03:21:08.459Z,98925.47
2024-01-15T03:26:10.060Z,98901.66
2024-01-15T03:31:11.781Z,98767.78
2024-01-15T03:36:13.520Z,98781.25
2024-01-15T03:41:15.156Z,98678.00
2024-01-15T03:46:16.802Z,98836.88
2024-01-15T03:51:19.312Z,98841.59
2024-01-15T03:56:20.946Z,98806.22
2024-01-15T04:01:22.593Z,98660.94
2024-01-15T04:06:24.444Z,98741.41
2024-01-15T04:11:26.156Z,98587.25
2024-01-15T04:16:27.789Z,98834.03
2024-01-15T04:21:29.489Z,98891.19
2024-01-15T04:26:31.169Z,98650.75
2024-01-15T04:31:32.863Z,98638.94
2024-01-15T04:36:40.506Z,98822.00
2024-01-15T04:41:42.236Z,98767.81
2024-01-15T04:46:44.987Z,98794.13
2024-01-15T04:51:46.768Z,98646.16
2024-01-15T04:56:48.481Z,98924.63
2024-01-15T05:01:50.264Z,98773.94
2024-01-15T05:06:52.176Z,98912.22
2024-01-15T05:11:53.834Z,98821.41
2024-01-15T05:16:55.541Z,99004.00
2024-01-15T05:21:57.240Z,98766.50
2024-01-15T05:26:58.861Z,98710.28
2024-01-15T05:32:02.449Z,98927.22
2024-01-15T05:37:04.761Z,98846.94
2024-01-15T05:42:06.502Z,98873.44
2024-01-15T05:47:09.199Z,98857.66
2024-01-15T05:52:10.885Z,98779.19
2024-01-15T05:57:12.683Z,98578.63
2024-01-15T06:02:14.421Z,98954.13
2024-01-15T06:07:16.151Z,98724.16
2024-01-15T06:12:17.804Z,98677.53
2024-01-15T06:17:19.976Z,98702.38
2024-01-15T06:22:21.716Z,98859.53
2024-01-15T06:27:23.491Z,98830.19
2024-01-15T06:32:25.251Z,98874.97
2024-01-15T06:37:26.936Z,98952.63
2024-01-15T06:42:28.585Z,98779.19
2024-01-15T06:47:30.482Z,98676.19
2024-01-15T06:52:32.203Z,98776.28
2024-01-15T06:57:33.940Z,98844.16
2024-01-15T07:02:35.672Z,98817.16
2024-01-15T07:07:37.578Z,98658.09
2024-01-15T07:12:39.310Z,98679.53
2024-01-15T07:17:41.144Z,98915.03
2024-01-15T07:22:42.879Z,98897.75
2024-01-15T07:27:46.168Z,98981.97
2024-01-15T07:32:48.045Z,98930.84
2024-01-15T07:37:49.750Z,98801.19
2024-01-15T07:42:52.064Z,98689.66
2024-01-15T07:47:54.136Z,98683.81
2024-01-15T07:52:55.851Z,98870.41
2024-01-15T07:58:11.048Z,98761.38
2024-01-15T08:03:17.169Z,98664.63
2024-01-15T08:08:19.867Z,98632.41
2024-01-15T08:13:21.896Z,98756.94
2024-01-15T08:18:23.677Z,98784.78
2024-01-15T08:23:25.959Z,98758.59
2024-01-15T08:28:27.589Z,98697.16
2024-01-15T08:33:29.506Z,98755.69
2024-01-15T08:38:31.274Z,98628.41
2024-01-15T08:43:32.983Z,98611.25
2024-01-15T08:48:34.794Z,98686.25
2024-01-15T08:53:36.626Z,98556.72
2024-01-15T08:58:38.348Z,98652.91
2024-01-15T09:03:41.268Z,98671.31
2024-01-15T09:08:42.989Z,98581.06
2024-01-15T09:13:44.628Z,98633.00
2024-01-15T09:18:48.240Z,98721.69
2024-01-15T09:23:50.153Z,98691.47
2024-01-15T09:28:53.023Z,98664.69
2024-01-15T09:33:57.460Z,98662.09
2024-01-15T09:38:59.274Z,98627.56
2024-01-15T09:44:00.970Z,98837.13
2024-01-15T09:49:03.323Z,98720.91
2024-01-15T09:54:06.060Z,98719.44
2024-01-15T09:59:08.253Z,98673.78
2024-01-15T10:04:10.058Z,98935.13
2024-01-15T10:09:15.633Z,98741.09
2024-01-15T10:14:17.390Z,98590.75
2024-01-15T10:19:19.226Z,98667.00
2024-01-15T10:24:21.175Z,98633.63
2024-01-15T10:29:22.819Z,98654.28
2024-01-15T10:34:24.585Z,98557.41
2024-01-15T10:39:26.498Z,98865.53
2024-01-15T10:44:28.399Z,98591.41
2024-01-15T10:49:33.217Z,98663.88
2024-01-15T10:54:38.533Z,98783.88
2024-01-15T10:59:40.410Z,98662.09
2024-01-15T11:06:23.755Z,98454.41
2024-01-15T11:11:27.267Z,98580.03
2024-01-15T11:16:57.433Z,98587.19
2024-01-15T11:21:59.090Z,98531.66
2024-01-15T11:27:00.789Z,98396.44
2024-01-15T11:32:05.928Z,98609.00
2024-01-15T11:37:08.164Z,98421.16
2024-01-15T11:42:11.684Z,98486.25
2024-01-15T11:47:16.352Z,98478.09
2024-01-15T11:52:19.945Z,98421.34
2024-01-15T11:57:33.610Z,98635.81
2024-01-15T12:02:35.601Z,98493.56
2024-01-15T12:07:37.256Z,98534.03
2024-01-15T12:13:01.204Z,98565.00
2024-01-15T12:18:04.076Z,98662.97
2024-01-15T12:23:10.505Z,98654.22
2024-01-15T12:28:12.490Z,98601.34
2024-01-15T12:33:14.154Z,98483.63
2024-01-15T12:38:15.832Z,98600.56
2024-01-15T12:43:18.722Z,98491.69
2024-01-15T12:48:20.517Z,98513.00
2024-01-15T12:53:22.926Z,98813.91
2024-01-15T12:58:24.539Z,98503.41
2024-01-15T13:03:26.157Z,98683.41
2024-01-15T13:08:29.641Z,98671.25
2024-01-15T13:13:32.541Z,98655.84
2024-01-15T13:18:34.319Z,98559.72
2024-01-15T13:23:35.995Z,98668.25
2024-01-15T13:28:37.621Z,98649.22
2024-01-15T13:33:42.605Z,98650.94
2024-01-15T13:38:46.265Z,98602.53
2024-01-15T13:43:50.515Z,98806.97
2024-01-15T13:48:52.329Z,98753.72
2024-01-15T13:53:54.206Z,98700.44
2024-01-15T13:58:55.833Z,98909.63
2024-01-15T14:03:57.531Z,98799.16
2024-01-15T14:08:59.153Z,98847.69
2024-01-15T14:14:00.704Z,98637.59
2024-01-15T14:19:03.978Z,98766.75
2024-01-15T14:24:06.242Z,98777.78
2024-01-15T14:29:08.587Z,98847.69
2024-01-15T14:34:10.420Z,98772.56
2024-01-15T14:39:12.198Z,98703.59
2024-01-15T14:44:13.854Z,98658.91
2024-01-15T14:49:16.098Z,98843.72
2024-01-15T14:54:17.847Z,98882.66
2024-01-15T15:05:19.326Z,98815.25
2024-01-15T15:10:20.941Z,98741.44
2024-01-15T15:15:23.914Z,98822.94
2024-01-15T15:20:26.820Z,98805.25
2024-01-15T15:25:28.524Z,98770.34
2024-01-15T15:30:30.213Z,98897.50
2024-01-15T15:35:31.909Z,98695.50
2024-01-15T15:40:33.541Z,98753.94
2024-01-15T15:45:35.276Z,98823.06
2024-01-15T15:50:37.928Z,98778.44
2024-01-15T15:55:40.357Z,98934.22
2024-01-15T16:00:42.050Z,99040.06
2024-01-15T16:05:51.806Z,98812.50
2024-01-15T16:10:56.611Z,98816.09
2024-01-15T16:23:08.855Z,98731.84
2024-01-15T16:23:36.022Z,98981.25
2024-01-15T16:26:42.711Z,98844.22
2024-01-15T16:31:44.848Z,98928.19
2024-01-15T16:36:46.817Z,98795.53
2024-01-15T16:41:48.773Z,98940.56
2024-01-15T16:46:50.411Z,98833.47
2024-01-15T16:51:52.404Z,98826.38
2024-01-15T16:56:53.989Z,99044.22
2024-01-15T17:01:55.627Z,99083.31
2024-01-15T17:06:57.500Z,99056.78
2024-01-15T17:11:59.132Z,99059.66
2024-01-15T17:17:00.801Z,99072.41
2024-01-15T17:22:02.442Z,99045.06
2024-01-15T17:27:04.414Z,98960.28
2024-01-15T17:32:06.160Z,99022.22
2024-01-15T17:37:07.810Z,99074.25
2024-01-15T17:42:10.384Z,99007.50
2024-01-15T17:47:12.114Z,99090.25
2024-01-15T17:52:13.725Z,99057.56
2024-01-15T17:57:15.374Z,99023.19
2024-01-15T18:02:16.990Z,98956.91
2024-01-15T18:07:21.182Z,99239.91
2024-01-15T18:12:22.885Z,99123.13
2024-01-15T18:17:24.930Z,99085.88
2024-01-15T18:22:26.684Z,99093.13
2024-01-15T18:27:29.425Z,99111.19
2024-01-15T18:32:31.096Z,99042.88
2024-01-15T18:37:33.304Z,99272.50
2024-01-15T18:42:35.619Z,99172.31
2024-01-15T18:47:37.811Z,99095.19
2024-01-15T18:52:39.506Z,99164.66
2024-01-15T18:57:44.827Z,99308.09
2024-01-15T19:02:46.474Z,99042.41
2024-01-15T19:07:48.109Z,99152.22
2024-01-15T19:12:49.959Z,99274.69
2024-01-15T19:17:51.737Z,99269.25
2024-01-15T19:22:53.742Z,99259.28
2024-01-15T19:27:55.741Z,99205.56
2024-01-15T19:32:57.599Z,99216.28
2024-01-15T19:37:59.454Z,99199.28
2024-01-15T19:43:02.433Z,99332.69
2024-01-15T19:48:05.322Z,99155.66
2024-01-15T19:53:07.129Z,99213.72
2024-01-15T19:58:08.823Z,99207.63
2024-01-15T20:03:10.453Z,99299.75
2024-01-15T20:08:12.117Z,99205.81
2024-01-15T20:13:13.781Z,99272.25
2024-01-15T20:18:15.557Z,99163.69
2024-01-15T20:23:19.075Z,99350.00
2024-01-15T20:28:21.949Z,99172.47
2024-01-15T20:33:23.630Z,99370.84
2024-01-15T20:38:25.417Z,99350.03
2024-01-15T20:43:27.195Z,99194.88
2024-01-15T20:48:29.423Z,99090.88
2024-01-15T20:53:31.228Z,99504.16
2024-01-15T20:58:32.933Z,99300.06
2024-01-15T21:03:35.802Z,99278.69
2024-01-15T21:08:37.496Z,99358.31
2024-01-15T21:13:39.495Z,99111.00
2024-01-15T21:18:41.884Z,99282.00
2024-01-15T21:23:43.575Z,99233.00
2024-01-15T21:28:45.256Z,99171.25
2024-01-15T21:33:47.235Z,99159.75
2024-01-15T21:38:48.969Z,99224.94
2024-01-15T21:43:50.587Z,99312.97
2024-01-15T21:48:52.421Z,99314.38
2024-01-15T21:53:54.189Z,99388.72
2024-01-15T21:58:55.820Z,99410.63
2024-01-15T22:03:57.534Z,99402.81
2024-01-15T22:08:59.182Z,99327.16
2024-01-15T22:14:00.861Z,99423.16
2024-01-15T22:19:03.035Z,99678.84
2024-01-15T22:24:05.207Z,99299.50
2024-01-15T22:29:07.456Z,99231.88
2024-01-15T22:34:09.210Z,99447.91
2024-01-15T22:39:10.933Z,99358.19
2024-01-15T22:44:12.722Z,99358.53
2024-01-15T22:49:14.430Z,99383.59
2024-01-15T22:54:16.222Z,99364.97
2024-01-15T22:59:22.927Z,99327.81
2024-01-15T23:04:25.014Z,99296.16
2024-01-15T23:09:26.696Z,99264.63
2024-01-15T23:14:28.586Z,99413.69
2024-01-15T23:19:30.252Z,99252.59
2024-01-15T23:24:31.855Z,99352.16
2024-01-15T23:29:33.575Z,99313.75
2024-01-15T23:34:38.334Z,99376.97
2024-01-15T23:39:40.136Z,99629.34
2024-01-15T23:44:42.077Z,99589.94
2024-01-15T23:49:43.907Z,99262.81
2024-01-15T23:54:45.586Z,99233.16
2024-01-15T23:59:47.266Z,99385.00
